Time;durP1;ratioP1;P1;durP2;ratioP2;P2;SDS_P1;SDS_P2;PMS_P1;PMS_P2;Temp;Humidity;BMP_temperature;BMP_pressure;BME280_temperature;BME280_humidity;BME280_pressure;Samples;Min_cycle;Max_cycle;Signal;HPM_P1;HPM_P2
2022/04/30 00:02:13;;;;;;;0.88;0.80;;;;;;;20.88;36.28;102706.00;5012199;28;20033;-69
2022/04/30 00:04:45;;;;;;;1.00;0.85;;;;;;;20.88;36.22;102696.91;5013679;28;20041;-69
2022/04/30 00:07:19;;;;;;;0.80;0.80;;;;;;;20.87;36.25;102698.78;5011992;28;20033;-69
2022/04/30 00:09:46;;;;;;;0.80;0.80;;;;;;;20.87;36.29;102704.31;5012115;28;20526;-69
2022/04/30 00:12:13;;;;;;;0.82;0.82;;;;;;;20.85;36.29;102701.78;5012080;28;20030;-69
2022/04/30 00:14:39;;;;;;;0.80;0.80;;;;;;;20.86;36.06;102694.38;5013149;28;20116;-70
2022/04/30 00:17:06;;;;;;;1.08;1.08;;;;;;;20.87;36.25;102709.00;5012849;28;20558;-69
2022/04/30 00:19:31;;;;;;;0.80;0.80;;;;;;;20.87;36.12;102709.00;5013196;28;20062;-69
2022/04/30 00:21:57;;;;;;;0.75;0.70;;;;;;;20.87;36.17;102709.81;5013168;28;20042;-69
2022/04/30 00:24:24;;;;;;;0.75;0.75;;;;;;;20.84;35.93;102700.09;5012183;28;20434;-70
2022/04/30 00:26:49;;;;;;;1.05;0.90;;;;;;;20.86;36.18;102705.41;5012923;28;20064;-69
2022/04/30 00:29:15;;;;;;;0.80;0.80;;;;;;;20.85;36.12;102701.78;5012995;28;20462;-70
2022/04/30 00:31:41;;;;;;;0.80;0.80;;;;;;;20.86;36.17;102708.16;5013519;28;20076;-69
2022/04/30 00:34:07;;;;;;;0.80;0.80;;;;;;;20.84;36.16;102699.28;5012964;28;20363;-69
2022/04/30 00:36:32;;;;;;;0.80;0.80;;;;;;;20.84;36.19;102702.03;5012819;28;20075;-69
2022/04/30 00:38:57;;;;;;;1.00;0.90;;;;;;;20.84;36.23;102704.78;5013439;28;20036;-69
2022/04/30 00:41:23;;;;;;;0.90;0.90;;;;;;;20.83;36.03;102697.59;5012837;28;20363;-69
2022/04/30 00:43:51;;;;;;;1.13;1.10;;;;;;;20.83;36.06;102697.59;5013400;28;20057;-69
2022/04/30 00:46:22;;;;;;;1.25;1.00;;;;;;;20.83;36.19;102700.34;5012481;28;20026;-70
2022/04/30 00:48:48;;;;;;;0.80;0.80;;;;;;;20.80;36.27;102687.91;5012498;28;20037;-70
2022/04/30 00:51:15;;;;;;;0.75;0.70;;;;;;;20.80;36.27;102692.56;5011424;28;20032;-69
2022/04/30 00:53:44;;;;;;;0.88;0.85;;;;;;;20.80;36.14;102689.78;5011644;28;20481;-69
2022/04/30 00:56:12;;;;;;;1.10;0.90;;;;;;;20.79;36.05;102683.44;5012879;28;20084;-69
2022/04/30 00:58:41;;;;;;;0.73;0.73;;;;;;;20.79;36.35;102680.69;5012588;28;20034;-69
2022/04/30 01:01:06;;;;;;;0.70;0.70;;;;;;;20.79;36.46;102677.09;5012113;28;20085;-69
2022/04/30 01:03:32;;;;;;;0.77;0.77;;;;;;;20.78;36.13;102675.41;5011060;28;20077;-69
2022/04/30 01:06:01;;;;;;;0.80;0.80;;;;;;;;;;5011570;28;20066;-70
2022/04/30 01:08:30;;;;;;;0.80;0.80;;;;;;;;;;5012096;28;20061;-70
2022/04/30 01:11:05;;;;;;;0.80;0.80;;;;;;;20.76;36.29;102675.66;5012059;28;20034;-69
2022/04/30 01:13:36;;;;;;;0.85;0.85;;;;;;;20.78;36.22;102689.22;5012691;28;20034;-69
2022/04/30 01:16:04;;;;;;;0.80;0.80;;;;;;;20.76;36.17;102683.94;5011101;28;20034;-70
2022/04/30 01:18:29;;;;;;;0.73;0.73;;;;;;;20.77;36.21;102684.75;5011789;28;20050;-69
2022/04/30 01:20:59;;;;;;;0.70;0.70;;;;;;;20.76;36.19;102681.16;5012505;28;20417;-69
2022/04/30 01:23:25;;;;;;;0.70;0.70;;;;;;;;;;5012112;28;20026;-70
2022/04/30 01:25:52;;;;;;;1.05;0.70;;;;;;;20.75;36.26;102679.47;5010197;28;20454;-70
2022/04/30 01:28:19;;;;;;;0.70;0.70;;;;;;;20.72;36.38;102673.63;5011077;28;20379;-69
2022/04/30 01:30:44;;;;;;;0.80;0.80;;;;;;;20.74;36.41;102672.28;5011987;28;20040;-70
2022/04/30 01:38:39;;;;;;;0.70;0.70;;;;;;;20.73;36.10;102664.25;5012313;28;20057;-69
2022/04/30 01:41:05;;;;;;;0.70;0.70;;;;;;;20.73;36.18;102667.88;5011955;28;20083;-70
2022/04/30 01:43:33;;;;;;;0.63;0.63;;;;;;;20.71;36.49;102667.25;5011902;28;20037;-69
2022/04/30 01:45:59;;;;;;;0.65;0.65;;;;;;;20.72;36.10;102668.94;5012610;28;20044;-69
2022/04/30 01:48:25;;;;;;;0.50;0.50;;;;;;;20.72;36.31;102668.94;5012010;28;20026;-70
2022/04/30 01:50:52;;;;;;;0.77;0.77;;;;;;;20.71;36.09;102660.91;5011404;28;20091;-70
2022/04/30 01:53:18;;;;;;;0.82;0.60;;;;;;;20.70;36.19;102659.22;5010503;28;20037;-69
2022/04/30 01:55:44;;;;;;;0.80;0.80;;;;;;;20.70;36.32;102662.84;5012033;28;20029;-69
2022/04/30 01:58:09;;;;;;;0.85;0.85;;;;;;;20.68;36.31;102663.06;5011651;28;20034;-70
2022/04/30 02:00:35;;;;;;;1.50;0.80;;;;;;;20.70;36.23;102657.31;5011539;28;20413;-69
2022/04/30 02:03:06;;;;;;;0.68;0.68;;;;;;;20.71;36.25;102660.91;5010151;28;20112;-69
2022/04/30 02:05:32;;;;;;;0.80;0.80;;;;;;;20.71;36.11;102663.66;5011657;28;20061;-69
2022/04/30 02:08:07;;;;;;;0.60;0.60;;;;;;;20.70;36.45;102654.56;5009934;28;20442;-70
2022/04/30 02:10:35;;;;;;;0.70;0.70;;;;;;;20.71;36.38;102649.88;5011544;28;20034;-69
2022/04/30 02:13:03;;;;;;;0.60;0.60;;;;;;;20.69;36.32;102644.59;5011946;28;20044;-70
2022/04/30 02:15:29;;;;;;;0.88;0.85;;;;;;;20.70;36.32;102649.03;5010126;28;20095;-70
2022/04/30 02:17:57;;;;;;;0.77;0.77;;;;;;;20.67;36.36;102635.72;5011068;28;20041;-69
2022/04/30 02:20:27;;;;;;;0.80;0.80;;;;;;;20.69;36.32;102655.63;5010629;28;20171;-69
2022/04/30 02:22:55;;;;;;;0.60;0.60;;;;;;;20.68;36.23;102646.53;5010564;28;20034;-70
2022/04/30 02:25:21;;;;;;;0.85;0.85;;;;;;;20.69;36.45;102650.09;5010827;28;20030;-70
2022/04/30 02:28:08;;;;;;;0.70;0.70;;;;;;;20.69;36.26;102647.34;5010466;28;20109;-69
2022/04/30 02:30:36;;;;;;;0.68;0.68;;;;;;;20.68;36.29;102645.66;5010482;28;20037;-69
2022/04/30 02:33:09;;;;;;;1.23;0.63;;;;;;;20.67;36.37;102644.00;5010120;28;20026;-69
2022/04/30 02:35:37;;;;;;;0.77;0.55;;;;;;;20.65;36.52;102637.84;5009854;28;20033;-69
2022/04/30 02:38:08;;;;;;;0.85;0.85;;;;;;;20.65;36.44;102637.84;5009504;28;20036;-69
2022/04/30 02:40:33;;;;;;;0.77;0.73;;;;;;;20.65;36.54;102635.94;5009317;28;20034;-69
2022/04/30 02:43:07;;;;;;;0.70;0.70;;;;;;;20.63;36.63;102638.09;5010007;28;20030;-70
2022/04/30 02:45:35;;;;;;;0.50;0.50;;;;;;;20.64;36.41;102636.19;4993462;28;20092;-69
2022/04/30 02:48:02;;;;;;;0.73;0.73;;;;;;;20.62;36.37;102628.13;5010086;28;20033;-69
2022/04/30 02:50:28;;;;;;;0.60;0.60;;;;;;;20.63;36.27;102631.75;5010183;28;20092;-69
2022/04/30 02:52:55;;;;;;;0.50;0.50;;;;;;;20.63;36.34;102627.06;5010698;28;20450;-69
2022/04/30 02:55:21;;;;;;;0.85;0.85;;;;;;;20.63;36.14;102634.50;5009180;28;20042;-69
2022/04/30 03:00:44;;;;;;;0.70;0.70;;;;;;;20.63;36.20;102627.06;5010009;28;20068;-69
2022/04/30 03:03:12;;;;;;;0.77;0.77;;;;;;;20.60;36.37;102626.72;5010811;28;20366;-69
2022/04/30 03:05:43;;;;;;;0.80;0.80;;;;;;;20.61;36.34;102634.75;5009929;28;20040;-69
2022/04/30 03:08:14;;;;;;;0.70;0.70;;;;;;;20.59;36.44;102634.13;5010089;28;20034;-69
2022/04/30 03:10:44;;;;;;;0.80;0.77;;;;;;;20.60;36.39;102629.47;5009866;28;20068;-69
2022/04/30 03:13:10;;;;;;;0.60;0.60;;;;;;;20.61;36.42;102636.63;5009830;28;20030;-70
2022/04/30 03:15:39;;;;;;;0.70;0.70;;;;;;;20.58;36.49;102635.22;5010626;28;20044;-69
2022/04/30 03:23:38;;;;;;;0.70;0.70;;;;;;;20.58;36.22;102629.72;5010907;28;20117;-69
2022/04/30 03:26:05;;;;;;;0.70;0.70;;;;;;;20.59;36.48;102625.03;5010585;28;20034;-70
2022/04/30 03:28:33;;;;;;;0.80;0.80;;;;;;;20.58;36.54;102626.09;5009093;28;20044;-69
2022/04/30 03:30:59;;;;;;;0.68;0.68;;;;;;;20.54;36.57;102616.66;5010717;28;20042;-70
2022/04/30 03:33:26;;;;;;;0.68;0.68;;;;;;;20.56;36.30;102615.31;5009268;28;20079;-69
2022/04/30 03:35:51;;;;;;;0.70;0.70;;;;;;;20.57;36.63;102614.22;5009174;28;20041;-70
2022/04/30 03:38:17;;;;;;;0.52;0.52;;;;;;;20.57;36.48;102611.47;5010441;28;20397;-70
2022/04/30 03:40:42;;;;;;;0.63;0.63;;;;;;;20.56;36.53;102609.78;5009450;28;20036;-70
2022/04/30 03:43:08;;;;;;;0.70;0.70;;;;;;;20.55;36.58;102608.13;5010384;28;20454;-69
2022/04/30 03:45:34;;;;;;;0.63;0.63;;;;;;;20.56;36.43;102612.53;4993126;28;20454;-69
2022/04/30 03:47:59;;;;;;;0.60;0.60;;;;;;;20.55;36.38;102610.88;5010464;28;20038;-69
2022/04/30 03:50:25;;;;;;;0.93;0.80;;;;;;;20.56;36.40;102608.97;5013710;28;20030;-69
2022/04/30 03:52:51;;;;;;;0.73;0.73;;;;;;;20.56;36.48;102603.44;5013343;28;20394;-69
2022/04/30 03:55:16;;;;;;;0.65;0.65;;;;;;;20.53;36.54;102610.28;5013543;28;20478;-69
2022/04/30 03:57:42;;;;;;;0.65;0.65;;;;;;;20.53;36.48;102602.00;5012427;28;20033;-70
2022/04/30 04:00:09;;;;;;;0.82;0.82;;;;;;;20.55;36.39;102604.50;5012257;28;20038;-70
2022/04/30 04:02:39;;;;;;;0.80;0.80;;;;;;;20.53;36.63;102603.94;5013116;28;20057;-70
2022/04/30 04:05:06;;;;;;;0.63;0.63;;;;;;;20.54;36.64;102608.38;5013488;28;20049;-69
2022/04/30 04:07:32;;;;;;;0.73;0.73;;;;;;;20.55;36.49;102607.28;5013339;28;20034;-69
2022/04/30 04:09:58;;;;;;;0.93;0.93;;;;;;;20.54;36.35;102606.44;5013071;28;20083;-69
2022/04/30 04:12:23;;;;;;;0.65;0.65;;;;;;;20.55;36.56;102607.28;5012421;28;20038;-69
2022/04/30 04:17:38;;;;;;;0.80;0.80;;;;;;;20.53;36.52;102613.03;5012976;28;20060;-69
2022/04/30 04:20:09;;;;;;;0.80;0.80;;;;;;;20.54;36.54;102611.13;5013000;28;20087;-69
2022/04/30 04:22:35;;;;;;;0.70;0.70;;;;;;;20.54;36.45;102611.97;5013657;28;20021;-69
2022/04/30 04:27:46;;;;;;;0.90;0.90;;;;;;;20.52;36.46;102605.81;5012277;28;20084;-70
2022/04/30 04:30:12;;;;;;;0.63;0.63;;;;;;;20.53;36.33;102614.94;5012912;28;20466;-70
2022/04/30 04:32:37;;;;;;;1.20;1.02;;;;;;;20.50;36.49;102613.50;5013491;28;20028;-69
2022/04/30 04:35:03;;;;;;;0.70;0.70;;;;;;;20.54;36.45;102627.69;5012680;28;20040;-69
2022/04/30 04:37:28;;;;;;;0.73;0.73;;;;;;;20.54;36.64;102624.91;5011781;28;20030;-69
2022/04/30 04:39:55;;;;;;;0.85;0.85;;;;;;;20.51;36.59;102628.97;5011651;28;20030;-69
2022/04/30 04:42:21;;;;;;;0.77;0.77;;;;;;;20.51;36.64;102623.47;5011625;28;20037;-69
2022/04/30 04:44:47;;;;;;;1.10;1.00;;;;;;;20.53;36.42;102620.47;5011612;28;20128;-69
2022/04/30 04:47:13;;;;;;;0.70;0.70;;;;;;;20.50;36.57;102622.59;4995765;28;20030;-69
2022/04/30 04:49:39;;;;;;;0.50;0.50;;;;;;;20.51;36.63;102632.56;5012764;28;20026;-69
2022/04/30 04:52:05;;;;;;;0.80;0.80;;;;;;;20.51;36.60;102635.31;5012079;28;20079;-69
2022/04/30 04:54:31;;;;;;;0.77;0.77;;;;;;;20.51;36.51;102635.31;5012646;28;20029;-69
2022/04/30 04:56:56;;;;;;;0.75;0.75;;;;;;;20.50;36.84;102630.88;5012677;28;20187;-69
2022/04/30 04:59:22;;;;;;;1.98;0.70;;;;;;;20.50;36.71;102644.66;5012052;28;20036;-70
2022/04/30 05:01:48;;;;;;;0.60;0.60;;;;;;;20.47;36.65;102636.03;5011381;28;20038;-70
2022/04/30 05:04:13;;;;;;;0.85;0.80;;;;;;;20.50;36.63;102650.19;5013043;28;20030;-69
2022/04/30 05:06:39;;;;;;;0.80;0.80;;;;;;;20.50;36.80;102647.41;5010976;28;20038;-69
2022/04/30 05:09:04;;;;;;;0.63;0.63;;;;;;;20.50;36.63;102654.88;5012465;28;20450;-71
2022/04/30 05:11:30;;;;;;;0.77;0.77;;;;;;;20.49;36.60;102651.28;4994859;28;20042;-71
2022/04/30 05:13:55;;;;;;;1.73;1.58;;;;;;;20.37;34.39;102655.09;5012114;28;20030;-71
2022/04/30 05:16:21;;;;;;;3.65;1.90;;;;;;;20.05;34.17;102652.63;5012324;28;20036;-71
2022/04/30 05:18:46;;;;;;;2.53;2.20;;;;;;;19.71;34.45;102660.50;5011159;28;20075;-71
2022/04/30 05:21:11;;;;;;;2.17;1.98;;;;;;;19.37;34.64;102651.84;5011988;28;20527;-71
2022/04/30 05:23:37;;;;;;;3.22;2.55;;;;;;;19.11;35.06;102653.84;5012248;28;20049;-71
2022/04/30 05:26:03;;;;;;;2.80;2.60;;;;;;;18.89;35.30;102656.19;5012189;28;20480;-73
2022/04/30 05:28:28;;;;;;;2.75;2.55;;;;;;;18.72;35.71;102656.75;5012349;28;20038;-72
2022/04/30 05:30:54;;;;;;;2.90;2.60;;;;;;;18.73;36.49;102655.69;5012320;28;20037;-71
2022/04/30 05:33:19;;;;;;;2.50;2.20;;;;;;;18.87;36.40;102658.34;5010744;28;20029;-75
2022/04/30 05:35:45;;;;;;;2.30;2.20;;;;;;;19.01;36.46;102662.63;4995296;28;20036;-75
2022/04/30 05:38:10;;;;;;;2.30;2.05;;;;;;;19.10;36.33;102649.41;5012020;28;20121;-75
2022/04/30 05:40:36;;;;;;;2.10;2.00;;;;;;;19.26;36.57;102651.53;5011969;28;20450;-71
2022/04/30 05:43:02;;;;;;;1.88;1.77;;;;;;;19.39;37.04;102656.03;5011668;28;20374;-68
2022/04/30 05:45:28;;;;;;;2.10;2.00;;;;;;;19.50;36.64;102654.41;5010751;28;20058;-69
2022/04/30 05:47:53;;;;;;;1.90;1.80;;;;;;;19.58;36.33;102653.28;5010521;28;20084;-71
2022/04/30 05:50:19;;;;;;;3.00;1.98;;;;;;;19.63;36.85;102664.41;5010654;28;20453;-68
2022/04/30 05:52:44;;;;;;;2.10;1.90;;;;;;;19.67;36.92;102662.88;5011829;28;20445;-71
2022/04/30 05:55:10;;;;;;;1.70;1.60;;;;;;;19.75;36.91;102661.72;5011489;28;20091;-71
2022/04/30 05:57:35;;;;;;;1.92;1.83;;;;;;;19.79;37.01;102665.72;5012008;28;20480;-72
2022/04/30 06:00:01;;;;;;;1.88;1.77;;;;;;;19.83;36.57;102669.69;5011112;28;20064;-71
2022/04/30 06:02:26;;;;;;;1.85;1.75;;;;;;;19.88;37.00;102661.56;5010516;28;20462;-71
2022/04/30 06:04:52;;;;;;;1.67;1.58;;;;;;;19.92;37.00;102660.03;5010914;28;20151;-72
2022/04/30 06:07:17;;;;;;;1.48;1.45;;;;;;;19.96;37.21;102675.00;5011254;28;20057;-71
2022/04/30 06:09:43;;;;;;;1.70;1.60;;;;;;;20.00;37.11;102660.78;5010415;28;20063;-71
2022/04/30 06:12:09;;;;;;;1.60;1.50;;;;;;;20.03;36.97;102668.56;5009773;28;20034;-72
2022/04/30 06:14:34;;;;;;;1.60;1.50;;;;;;;20.03;36.93;102661.13;5010602;28;20075;-72
2022/04/30 06:17:00;;;;;;;2.70;1.52;;;;;;;20.07;37.00;102673.34;5011163;28;20042;-73
2022/04/30 06:19:26;;;;;;;1.58;1.48;;;;;;;20.10;37.16;102670.13;5011393;28;20121;-71
2022/04/30 06:21:51;;;;;;;1.48;1.38;;;;;;;20.12;36.99;102672.66;5011862;28;20056;-71
2022/04/30 06:24:17;;;;;;;1.50;1.40;;;;;;;20.14;37.14;102676.03;5012063;28;20038;-72
2022/04/30 06:26:44;;;;;;;1.42;1.33;;;;;;;20.15;37.83;102673.03;5011207;28;20022;-84
2022/04/30 06:29:10;;;;;;;1.20;1.20;;;;;;;20.19;37.54;102669.81;5011321;28;20113;-74
2022/04/30 06:31:36;;;;;;;1.15;1.15;;;;;;;20.21;37.99;102667.63;5011225;28;20026;-69
2022/04/30 06:34:02;;;;;;;1.98;1.52;;;;;;;20.22;37.75;102672.91;5011520;28;20030;-71
2022/04/30 06:36:28;;;;;;;1.17;1.17;;;;;;;20.25;37.90;102674.38;5011260;28;20482;-70
2022/04/30 06:38:53;;;;;;;1.42;1.33;;;;;;;20.25;37.69;102679.88;5009943;28;20034;-70
2022/04/30 06:41:21;;;;;;;1.40;1.30;;;;;;;20.26;37.77;102670.53;5011115;28;20026;-70
2022/04/30 06:43:46;;;;;;;1.60;1.38;;;;;;;20.26;37.73;102665.03;5011346;28;20028;-71
2022/04/30 06:46:12;;;;;;;1.38;1.27;;;;;;;20.25;37.69;102671.59;5010022;28;20108;-71
2022/04/30 06:48:37;;;;;;;1.17;1.17;;;;;;;20.24;37.98;102669.91;5010574;28;20438;-71
2022/04/30 06:51:03;;;;;;;1.50;1.40;;;;;;;20.26;37.68;102667.78;5011104;28;20025;-71
2022/04/30 06:59:01;;;;;;;1.20;1.20;;;;;;;20.26;37.83;102663.09;5011548;28;20488;-70
2022/04/30 07:01:51;;;;;;;1.63;1.20;;;;;;;20.27;38.18;102669.44;5010813;28;20034;-70
2022/04/30 07:04:17;;;;;;;1.40;1.30;;;;;;;20.29;38.29;102668.13;5009936;28;20474;-70
2022/04/30 07:06:45;;;;;;;1.60;1.50;;;;;;;20.32;38.21;102669.59;5009159;28;20044;-70
2022/04/30 07:09:11;;;;;;;1.30;1.20;;;;;;;20.33;37.93;102666.59;5010800;28;20034;-70
2022/04/30 07:11:36;;;;;;;1.25;1.13;;;;;;;20.32;38.01;102672.34;5010471;28;20038;-71
2022/04/30 07:14:02;;;;;;;1.30;1.20;;;;;;;20.32;37.97;102670.41;5010398;28;20040;-70
2022/04/30 07:16:27;;;;;;;1.13;1.10;;;;;;;20.33;38.07;102663.84;5010546;28;20034;-70
2022/04/30 07:18:53;;;;;;;1.20;1.20;;;;;;;20.33;38.09;102674.88;5009418;28;20117;-71
2022/04/30 07:21:18;;;;;;;1.30;1.20;;;;;;;20.36;38.28;102672.69;5009497;28;20026;-70
2022/04/30 07:23:43;;;;;;;1.15;1.08;;;;;;;20.35;38.22;102673.78;4995917;28;20042;-70
2022/04/30 07:26:10;;;;;;;2.25;1.20;;;;;;;20.36;38.18;102680.97;5014025;28;20037;-70
2022/04/30 07:28:35;;;;;;;1.30;1.20;;;;;;;20.36;38.45;102683.72;5014221;28;20069;-70
2022/04/30 07:31:02;;;;;;;1.30;1.20;;;;;;;20.37;38.58;102679.91;5014154;28;20476;-70
2022/04/30 07:33:28;;;;;;;1.20;1.17;;;;;;;20.37;38.26;102677.16;5013598;28;20481;-70
2022/04/30 07:35:54;;;;;;;0.95;0.95;;;;;;;20.37;38.29;102671.63;4996317;28;20030;-71
2022/04/30 07:38:20;;;;;;;1.10;1.10;;;;;;;20.38;38.46;102670.56;5012392;28;20397;-71
2022/04/30 07:40:45;;;;;;;1.17;1.17;;;;;;;20.38;38.46;102668.63;5013813;28;20042;-70
2022/04/30 07:43:11;;;;;;;1.20;1.10;;;;;;;20.39;39.08;102675.84;5013509;28;20041;-72
2022/04/30 07:45:36;;;;;;;1.17;1.17;;;;;;;20.41;39.06;102667.34;5014018;28;20429;-72
2022/04/30 07:48:02;;;;;;;1.30;1.20;;;;;;;20.41;39.03;102664.56;5013594;28;20363;-71
2022/04/30 07:50:35;;;;;;;1.10;1.10;;;;;;;20.44;39.11;102664.09;4996922;28;20026;-74
2022/04/30 07:53:00;;;;;;;1.30;1.20;;;;;;;20.44;39.07;102672.38;5013952;28;20062;-72
2022/04/30 07:55:28;;;;;;;1.00;1.00;;;;;;;20.44;39.04;102664.94;5013569;28;20124;-72
2022/04/30 07:57:53;;;;;;;1.45;1.35;;;;;;;20.45;38.27;102668.53;4996289;28;20113;-72
2022/04/30 08:00:19;;;;;;;2.05;1.30;;;;;;;20.44;38.17;102662.16;5012251;28;20117;-70
2022/04/30 08:02:44;;;;;;;1.30;1.17;;;;;;;20.45;37.79;102661.09;5012029;28;20065;-70
2022/04/30 08:05:10;;;;;;;1.85;1.75;;;;;;;20.46;38.10;102656.41;4996590;28;20048;-70
2022/04/30 08:07:35;;;;;;;2.28;1.30;;;;;;;20.48;39.63;102654.28;5013830;28;20037;-70
2022/04/30 08:10:01;;;;;;;1.40;1.30;;;;;;;20.48;38.81;102651.53;5013097;28;20065;-70
2022/04/30 08:12:26;;;;;;;1.65;1.30;;;;;;;20.49;38.59;102658.69;5012185;28;20034;-70
2022/04/30 08:14:51;;;;;;;2.47;1.30;;;;;;;20.48;38.42;102649.59;5012142;28;20514;-70
2022/04/30 08:17:17;;;;;;;1.15;1.15;;;;;;;20.50;38.32;102649.34;5013044;28;20099;-70
2022/04/30 08:19:42;;;;;;;1.20;1.10;;;;;;;20.51;38.72;102657.38;5013157;28;20065;-70
2022/04/30 08:22:08;;;;;;;1.40;1.30;;;;;;;20.51;38.82;102651.88;5013176;28;20101;-70
2022/04/30 08:24:33;;;;;;;1.17;1.17;;;;;;;20.53;38.69;102651.63;5013346;28;20038;-70
2022/04/30 08:26:59;;;;;;;1.65;1.48;;;;;;;20.54;38.52;102641.47;5013305;28;20099;-70
2022/04/30 08:29:28;;;;;;;1.13;1.13;;;;;;;20.54;38.20;102647.81;5012723;28;20136;-70
2022/04/30 08:31:54;;;;;;;1.10;1.10;;;;;;;20.56;38.56;102650.31;5011600;28;20030;-79
2022/04/30 08:34:19;;;;;;;1.98;1.30;;;;;;;20.56;39.04;102656.66;5012907;28;20061;-70
2022/04/30 08:36:45;;;;;;;1.15;1.08;;;;;;;20.53;38.92;102648.03;5012680;28;20123;-70
2022/04/30 08:39:10;;;;;;;1.67;1.15;;;;;;;20.54;39.02;102650.56;5011652;28;20076;-73
2022/04/30 08:41:36;;;;;;;1.25;1.25;;;;;;;20.56;39.67;102647.56;5012631;28;20030;-70
2022/04/30 08:44:01;;;;;;;1.13;1.00;;;;;;;20.57;40.11;102649.25;5012835;28;20087;-70
2022/04/30 08:46:27;;;;;;;1.23;1.13;;;;;;;20.56;39.65;102634.59;5012348;28;20042;-70
2022/04/30 08:48:52;;;;;;;1.15;0.98;;;;;;;20.57;38.76;102632.72;5013221;28;20030;-70
2022/04/30 08:51:18;;;;;;;1.02;1.00;;;;;;;20.57;39.16;102630.78;5011591;28;20030;-70
2022/04/30 08:53:44;;;;;;;1.40;0.90;;;;;;;20.57;38.82;102647.31;5012758;28;20033;-70
2022/04/30 08:56:10;;;;;;;1.00;0.90;;;;;;;20.56;38.79;102634.59;5012647;28;20037;-70
2022/04/30 08:58:35;;;;;;;1.10;1.02;;;;;;;20.59;39.25;102630.53;5012588;28;20037;-70
2022/04/30 09:01:03;;;;;;;1.10;1.08;;;;;;;20.59;38.74;102633.28;5011074;28;20492;-70
2022/04/30 09:03:33;;;;;;;1.10;1.00;;;;;;;20.60;38.93;102634.97;5012529;28;20113;-70
2022/04/30 09:06:00;;;;;;;2.70;1.05;;;;;;;20.60;38.75;102635.81;5011562;28;20083;-70
2022/04/30 09:08:25;;;;;;;1.10;1.10;;;;;;;20.61;39.36;102625.59;5011672;28;20121;-72
2022/04/30 09:10:51;;;;;;;1.15;1.15;;;;;;;20.59;37.50;102628.59;5011037;28;20470;-73
2022/04/30 09:13:17;;;;;;;1.42;1.27;;;;;;;20.53;37.79;102629.56;5011419;28;20522;-73
2022/04/30 09:15:45;;;;;;;1.40;1.30;;;;;;;20.51;38.17;102634.50;5012110;28;20026;-73
2022/04/30 09:18:13;;;;;;;1.13;1.02;;;;;;;20.51;38.33;102629.81;5011926;28;20053;-73
2022/04/30 09:20:46;;;;;;;1.35;1.20;;;;;;;20.52;38.31;102630.63;5012281;28;20022;-73
2022/04/30 09:23:34;;;;;;;1.30;1.20;;;;;;;20.53;38.51;102635.09;5011350;28;20056;-73
2022/04/30 09:26:03;;;;;;;0.90;0.90;;;;;;;20.52;38.23;102625.13;5006009;28;20187;-73
2022/04/30 09:28:38;;;;;;;1.00;1.00;;;;;;;20.53;38.24;102624.06;5010679;28;20034;-73
2022/04/30 09:31:12;;;;;;;1.75;1.30;;;;;;;20.55;38.09;102621.06;5011059;28;20041;-73
2022/04/30 09:33:53;;;;;;;1.38;1.17;;;;;;;20.58;38.15;102620.56;5011577;28;20030;-73
2022/04/30 09:39:15;;;;;;;0.90;0.90;;;;;;;20.57;38.23;102617.00;5010797;28;20501;-73
2022/04/30 09:41:41;;;;;;;1.10;1.10;;;;;;;20.57;38.35;102613.41;5011623;28;20075;-73
2022/04/30 09:44:09;;;;;;;1.27;1.20;;;;;;;20.57;38.19;102610.66;5011652;28;20042;-73
2022/04/30 09:46:36;;;;;;;1.20;1.20;;;;;;;20.57;38.22;102600.44;5010342;28;20030;-73
2022/04/30 09:54:32;;;;;;;1.00;1.00;;;;;;;20.60;38.09;102601.91;5012331;28;20045;-73
2022/04/30 09:56:59;;;;;;;1.77;1.00;;;;;;;20.62;38.34;102602.47;4994621;28;20034;-73
2022/04/30 09:59:25;;;;;;;1.35;1.20;;;;;;;20.62;38.33;102594.19;5011102;28;20355;-73
2022/04/30 10:01:53;;;;;;;1.20;1.10;;;;;;;20.64;38.29;102597.56;5010353;28;20037;-73
2022/04/30 10:04:18;;;;;;;0.90;0.90;;;;;;;20.63;38.08;102591.22;5010898;28;20038;-73
2022/04/30 10:06:46;;;;;;;1.20;1.10;;;;;;;20.66;38.10;102598.19;5026844;28;20048;-73
2022/04/30 10:09:14;;;;;;;0.85;0.85;;;;;;;20.66;38.13;102587.16;5010321;28;20034;-71
2022/04/30 10:12:01;;;;;;;1.10;1.10;;;;;;;20.68;38.32;102585.84;5011541;28;20088;-73
2022/04/30 10:14:51;;;;;;;1.05;1.00;;;;;;;20.72;38.37;102582.59;5010212;28;20033;-72
2022/04/30 10:17:23;;;;;;;1.33;1.23;;;;;;;20.78;38.96;102578.88;5010445;28;20137;-71
2022/04/30 10:20:12;;;;;;;1.05;1.05;;;;;;;20.94;38.49;102580.88;5012003;28;20041;-74
2022/04/30 10:22:55;;;;;;;1.13;1.02;;;;;;;21.10;38.21;102582.03;5010705;28;20069;-75
2022/04/30 10:25:41;;;;;;;1.15;1.05;;;;;;;21.16;37.87;102571.94;5011938;28;20052;-75
2022/04/30 10:28:23;;;;;;;1.10;1.10;;;;;;;21.13;37.46;102577.97;5011811;28;20438;-74
2022/04/30 10:31:00;;;;;;;1.13;1.00;;;;;;;21.10;37.75;102573.75;5009973;28;20026;-72
2022/04/30 10:33:26;;;;;;;1.45;1.00;;;;;;;21.07;37.20;102568.75;5010848;28;20029;-73
2022/04/30 10:36:07;;;;;;;0.85;0.85;;;;;;;21.07;37.48;102573.41;5010202;28;20121;-73
2022/04/30 10:38:33;;;;;;;0.85;0.85;;;;;;;21.06;37.28;102574.50;5011204;28;20034;-73
2022/04/30 10:41:01;;;;;;;1.80;1.10;;;;;;;21.04;37.18;102569.22;5009884;28;20026;-73
2022/04/30 10:43:26;;;;;;;0.90;0.90;;;;;;;21.03;37.10;102562.84;5011102;28;20045;-73
2022/04/30 10:45:53;;;;;;;1.15;1.05;;;;;;;21.02;37.03;102566.72;5009827;28;20026;-73
2022/04/30 10:48:20;;;;;;;0.90;0.90;;;;;;;21.01;37.10;102564.19;5011002;28;20477;-74
2022/04/30 10:51:00;;;;;;;1.20;1.10;;;;;;;21.02;36.98;102557.56;5009866;28;20041;-73
2022/04/30 10:53:28;;;;;;;1.17;1.08;;;;;;;21.01;37.10;102553.16;5011324;28;20033;-73
2022/04/30 10:55:54;;;;;;;0.95;0.95;;;;;;;21.01;36.80;102544.88;5009719;28;20053;-73
2022/04/30 10:58:24;;;;;;;1.00;0.90;;;;;;;21.02;36.74;102541.03;5011913;28;20066;-73
2022/04/30 11:00:49;;;;;;;0.80;0.80;;;;;;;21.01;36.49;102534.69;5029787;28;20464;-73
2022/04/30 11:03:15;;;;;;;1.35;0.80;;;;;;;21.02;36.39;102532.75;5014726;28;20069;-73
2022/04/30 11:05:42;;;;;;;1.05;1.00;;;;;;;21.01;36.55;102528.34;5014378;28;20034;-73
2022/04/30 11:08:07;;;;;;;0.77;0.77;;;;;;;21.03;36.39;102528.91;4996814;28;20440;-73
2022/04/30 11:10:33;;;;;;;1.05;1.00;;;;;;;21.02;36.18;102521.72;4996744;28;20033;-73
2022/04/30 11:13:03;;;;;;;0.93;0.85;;;;;;;21.02;36.29;102518.94;5013108;28;20386;-73
2022/04/30 11:15:28;;;;;;;0.90;0.90;;;;;;;21.02;36.35;102528.09;5014187;28;20112;-73
2022/04/30 11:17:58;;;;;;;0.80;0.80;;;;;;;21.03;36.34;102526.97;5013944;28;20088;-73
2022/04/30 11:20:25;;;;;;;1.05;0.93;;;;;;;21.02;36.23;102510.66;5012553;28;20094;-73
2022/04/30 11:22:54;;;;;;;1.25;1.20;;;;;;;21.03;36.17;102521.47;5014310;28;20040;-73
2022/04/30 11:25:20;;;;;;;1.08;1.08;;;;;;;21.05;35.86;102512.94;4996918;28;20034;-73
2022/04/30 11:27:46;;;;;;;1.05;1.05;;;;;;;21.03;36.40;102509.59;4996843;28;20037;-73
2022/04/30 11:30:11;;;;;;;0.90;0.90;;;;;;;21.05;36.20;102507.41;5012630;28;20038;-73
2022/04/30 11:32:37;;;;;;;0.90;0.90;;;;;;;21.05;36.10;102499.13;5013635;28;20118;-71
2022/04/30 11:35:04;;;;;;;0.98;0.98;;;;;;;21.05;36.13;102499.13;5013594;28;20503;-73
2022/04/30 11:37:39;;;;;;;1.02;0.95;;;;;;;21.06;36.52;102500.81;5013785;28;20519;-73
2022/04/30 11:40:06;;;;;;;0.90;0.90;;;;;;;21.07;36.24;102497.00;5013868;28;20026;-73
2022/04/30 11:42:31;;;;;;;0.98;0.98;;;;;;;21.07;36.73;102491.47;4996574;28;20534;-73
2022/04/30 11:44:57;;;;;;;0.90;0.90;;;;;;;21.03;36.35;102480.06;5013450;28;20120;-73
2022/04/30 11:47:22;;;;;;;1.38;1.00;;;;;;;21.06;35.97;102488.97;4996099;28;20109;-73
2022/04/30 11:49:48;;;;;;;0.90;0.90;;;;;;;21.03;36.35;102487.53;5014460;28;20152;-73
2022/04/30 11:52:16;;;;;;;0.80;0.80;;;;;;;21.03;36.36;102491.09;5013397;28;20398;-73
2022/04/30 11:54:42;;;;;;;0.73;0.73;;;;;;;21.01;36.60;102490.53;5012641;28;20053;-73
2022/04/30 11:57:09;;;;;;;0.82;0.82;;;;;;;21.02;36.73;102502.38;5013580;28;20462;-73
2022/04/30 11:59:39;;;;;;;0.90;0.90;;;;;;;21.01;36.80;102495.22;5012523;28;20034;-73
2022/04/30 12:02:12;;;;;;;1.05;1.00;;;;;;;20.99;36.24;102492.72;5013917;28;20037;-73